Portada
METAR-TAF:

METAR-TAF

Aeroports :

Alexandria-Borg El Arab, Egipte

latitud: 31-31N, longitud: 030-10E, altitud: 54 m

Observació

L'informe es va fer fa 1 hora i 30 minuts, a les 07:00 UTC
Vent 9 kt del Nord-Oest
Temperatura 22°C
Humitat 69%
Pressió 1016 hPa
Visibilitat 10 km o més
sense núvols per sota de 1500 mi sense presència de cumulonimbus.

METAR: HEBA 150700Z 31009KT CAVOK 22/16 Q1016 NOSIG

Hora: 10:30 (08:30 UTC)

Pronòstic

L'informe es va fer fa 3 hores i 30 minuts, a les 05:00 UTC
Pronòstic vàlid del 15 a les 06 UTC al 16 a les 12 UTC
Vent 11 kt del Nord/Nord-Oest
Visibilitat 10 km o més
Escasses núvols a una alçada de 2000 ft
Evolucionant progressivament
l' 15 a les 16 UTC al 15 a les 18 UTC
Vent 8 kt del Nord-Est

TAF: HEBA 150500Z 1506/1612 34011KT 9999 FEW020 BECMG 1516/1518 05008KT

Observacions i pronòstics meteorològics de més de 4000 aeroports (METAR i TAF).

Les estacions disponibles són els punts grocs i vermells al mapa.

Posi el ratolí al punt desitjat per veure el nom de l'estació.

Feu clic per veure les observacions i els pronòstics meteorològics.

Per canviar el mapa: feu clic els botons verds amb una creu de color negre per apropar; al botó verd amb un guió per allunyar la imatge; o en les fletxes verdes per a mapes adjacents.


METAR-TAF: